createdAt,value
2019-03-11T00:00:36.226Z,99303.20
2019-03-11T00:01:43.199Z,99305.81
2019-03-11T00:02:50.250Z,99305.38
2019-03-11T00:03:57.077Z,99303.19
2019-03-11T00:05:06.947Z,99301.43
2019-03-11T00:06:13.909Z,99308.42
2019-03-11T00:07:20.386Z,99316.73
2019-03-11T00:08:27.076Z,99314.99
2019-03-11T00:09:33.387Z,99319.34
2019-03-11T00:10:40.869Z,99325.04
2019-03-11T00:11:47.797Z,99321.09
2019-03-11T00:12:54.267Z,99324.16
2019-03-11T00:14:01.277Z,99323.28
2019-03-11T00:15:10.067Z,99330.27
2019-03-11T00:16:16.717Z,99330.23
2019-03-11T00:17:23.257Z,99330.68
2019-03-11T00:18:29.386Z,99337.23
2019-03-11T00:19:36.107Z,99349.02
2019-03-11T00:20:42.607Z,99348.56
2019-03-11T00:21:48.737Z,99348.13
2019-03-11T00:22:55.095Z,99354.66
2019-03-11T00:24:01.356Z,99362.09
2019-03-11T00:25:08.137Z,99362.09
2019-03-11T00:26:15.373Z,99367.34
2019-03-11T00:27:21.757Z,99369.95
2019-03-11T00:28:28.798Z,99371.25
2019-03-11T00:29:35.097Z,99373.44
2019-03-11T00:30:42.287Z,99376.49
2019-03-11T00:31:49.867Z,99374.30
2019-03-11T00:32:56.688Z,99387.86
2019-03-11T00:34:03.908Z,99386.98
2019-03-11T00:35:12.760Z,99393.95
2019-03-11T00:36:19.718Z,99396.57
2019-03-11T00:37:26.535Z,99395.27
2019-03-11T00:38:33.238Z,99397.00
2019-03-11T00:39:39.277Z,99406.58
2019-03-11T00:40:45.698Z,99405.72
2019-03-11T00:41:52.018Z,99404.84
2019-03-11T00:42:58.210Z,99411.83
2019-03-11T00:44:05.146Z,99407.86
2019-03-11T00:45:14.919Z,99413.98
2019-03-11T00:46:21.788Z,99413.08
2019-03-11T00:47:27.778Z,99407.84
2019-03-11T00:48:35.078Z,99418.28
2019-03-11T00:49:43.348Z,99420.46
2019-03-11T00:50:49.991Z,99417.38
2019-03-11T00:51:56.418Z,99422.17
2019-03-11T00:53:03.571Z,99426.03
2019-03-11T00:54:10.478Z,99431.69
2019-03-11T00:55:16.719Z,99440.39
2019-03-11T00:56:25.766Z,99441.71
2019-03-11T00:57:32.366Z,99453.95
2019-03-11T00:58:39.313Z,99455.25
2019-03-11T00:59:46.861Z,99450.01
2019-03-11T01:00:53.266Z,99452.63
2019-03-11T01:02:00.006Z,99450.89
2019-03-11T01:03:07.849Z,99462.27
2019-03-11T01:04:13.877Z,99452.64
2019-03-11T01:05:20.646Z,99460.54
2019-03-11T01:06:27.063Z,99466.63
2019-03-11T01:07:35.098Z,99464.02
2019-03-11T01:08:42.241Z,99467.06
2019-03-11T01:09:48.699Z,99470.13
2019-03-11T01:10:55.408Z,99471.44
2019-03-11T01:12:01.954Z,99475.80
2019-03-11T01:13:08.631Z,99477.10
2019-03-11T01:14:15.429Z,99487.14
2019-03-11T01:15:22.170Z,99491.50
2019-03-11T01:16:28.792Z,99486.72
2019-03-11T01:17:37.979Z,99489.77
2019-03-11T01:18:44.437Z,99489.31
2019-03-11T01:19:50.979Z,99499.37
2019-03-11T01:20:58.379Z,99500.26
2019-03-11T01:22:05.940Z,99500.69
2019-03-11T01:23:12.440Z,99511.14
2019-03-11T01:24:18.939Z,99504.17
2019-03-11T01:25:25.259Z,99503.30
2019-03-11T01:26:32.220Z,99505.51
2019-03-11T01:27:39.840Z,99509.44
2019-03-11T01:28:46.429Z,99508.55
2019-03-11T01:29:53.487Z,99514.67
2019-03-11T01:31:01.319Z,99520.77
2019-03-11T01:32:09.870Z,99518.58
2019-03-11T01:33:16.659Z,99525.12
2019-03-11T01:34:23.533Z,99523.36
2019-03-11T01:35:30.103Z,99525.53
2019-03-11T01:36:37.430Z,99530.77
2019-03-11T01:37:44.388Z,99531.62
2019-03-11T01:38:52.127Z,99539.02
2019-03-11T01:39:58.869Z,99548.64
2019-03-11T01:41:05.740Z,99545.13
2019-03-11T01:42:12.940Z,99547.33
2019-03-11T01:43:20.099Z,99550.80
2019-03-11T01:44:26.899Z,99556.44
2019-03-11T01:45:34.192Z,99559.94
2019-03-11T01:46:40.910Z,99559.47
2019-03-11T01:47:47.758Z,99559.87
2019-03-11T01:48:54.558Z,99558.97
2019-03-11T01:50:01.699Z,99566.79
2019-03-11T01:51:09.000Z,99567.64
2019-03-11T01:52:15.680Z,99572.00
2019-03-11T01:53:22.564Z,99575.02
2019-03-11T01:54:29.593Z,99575.88
2019-03-11T01:55:36.890Z,99586.77
2019-03-11T01:56:44.040Z,99593.29
2019-03-11T01:57:52.154Z,99594.54
2019-03-11T01:58:58.680Z,99594.94
2019-03-11T02:00:20.150Z,99597.98
2019-03-11T02:01:28.268Z,99602.30
2019-03-11T02:02:35.469Z,99609.70
2019-03-11T02:03:41.600Z,99613.14
2019-03-11T02:04:49.050Z,99610.04
2019-03-11T02:05:55.578Z,99620.50
2019-03-11T02:07:02.223Z,99620.87
2019-03-11T02:08:08.550Z,99623.06
2019-03-11T02:09:15.300Z,99623.06
2019-03-11T02:10:22.812Z,99629.14
2019-03-11T02:11:30.667Z,99629.56
2019-03-11T02:12:37.161Z,99629.53
2019-03-11T02:13:44.350Z,99632.12
2019-03-11T02:14:52.251Z,99631.23
2019-03-11T02:15:58.742Z,99633.33
2019-03-11T02:17:05.310Z,99631.56
2019-03-11T02:18:11.701Z,99647.22
2019-03-11T02:19:18.642Z,99644.16
2019-03-11T02:20:26.464Z,99649.80
2019-03-11T02:21:33.260Z,99649.77
2019-03-11T02:22:39.561Z,99646.28
2019-03-11T02:23:46.771Z,99648.01
2019-03-11T02:24:53.291Z,99655.88
2019-03-11T02:26:00.162Z,99659.41
2019-03-11T02:27:07.034Z,99663.38
2019-03-11T02:28:14.253Z,99670.36
2019-03-11T02:29:21.643Z,99662.09
2019-03-11T02:30:28.354Z,99671.70
2019-03-11T02:31:35.042Z,99669.12
2019-03-11T02:32:41.892Z,99685.30
2019-03-11T02:33:48.970Z,99684.88
2019-03-11T02:34:55.521Z,99679.25
2019-03-11T02:36:02.826Z,99681.02
2019-03-11T02:37:08.733Z,99683.64
2019-03-11T02:38:15.752Z,99684.48
2019-03-11T02:39:22.905Z,99686.25
2019-03-11T02:40:29.462Z,99688.02
2019-03-11T02:41:37.543Z,99691.52
2019-03-11T02:42:44.183Z,99687.56
2019-03-11T02:43:50.883Z,99692.83
2019-03-11T02:44:57.283Z,99696.75
2019-03-11T02:46:04.016Z,99701.09
2019-03-11T02:47:10.152Z,99699.39
2019-03-11T02:48:16.592Z,99701.59
2019-03-11T02:49:23.791Z,99710.28
2019-03-11T02:50:31.043Z,99705.09
2019-03-11T02:51:37.963Z,99700.77
2019-03-11T02:52:44.358Z,99710.80
2019-03-11T02:53:50.673Z,99714.73
2019-03-11T02:54:57.230Z,99717.77
2019-03-11T02:56:04.194Z,99717.77
2019-03-11T02:57:10.463Z,99717.34
2019-03-11T02:58:17.672Z,99709.89
2019-03-11T02:59:25.004Z,99715.94
2019-03-11T03:00:31.105Z,99719.83
2019-03-11T03:01:38.840Z,99720.68
2019-03-11T03:02:58.863Z,99724.99
2019-03-11T03:04:07.120Z,99723.19
2019-03-11T03:05:15.372Z,99730.12
2019-03-11T03:06:23.354Z,99722.62
2019-03-11T03:07:29.960Z,99733.90
2019-03-11T03:08:36.240Z,99730.33
2019-03-11T03:09:43.433Z,99726.79
2019-03-11T03:10:51.275Z,99727.95
2019-03-11T03:11:58.425Z,99727.03
2019-03-11T03:13:05.425Z,99723.03
2019-03-11T03:14:12.027Z,99732.09
2019-03-11T03:15:20.033Z,99729.80
2019-03-11T03:16:27.553Z,99738.44
2019-03-11T03:17:34.772Z,99737.47
2019-03-11T03:18:41.072Z,99734.36
2019-03-11T03:19:48.910Z,99739.53
2019-03-11T03:20:56.073Z,99741.22
2019-03-11T03:22:02.963Z,99749.34
2019-03-11T03:23:10.439Z,99747.55
2019-03-11T03:24:16.891Z,99748.81
2019-03-11T03:25:33.626Z,99740.09
2019-03-11T03:26:32.284Z,99751.88
2019-03-11T03:27:39.064Z,99760.56
2019-03-11T03:28:46.024Z,99760.13
2019-03-11T03:29:52.645Z,99760.51
2019-03-11T03:30:59.629Z,99762.62
2019-03-11T03:32:06.270Z,99762.53
2019-03-11T03:33:13.302Z,99768.16
2019-03-11T03:34:20.514Z,99763.73
2019-03-11T03:35:27.254Z,99775.86
2019-03-11T03:36:34.276Z,99767.98
2019-03-11T03:37:40.963Z,99773.20
2019-03-11T03:38:47.533Z,99769.62
2019-03-11T03:39:54.048Z,99778.30
2019-03-11T03:41:00.618Z,99770.00
2019-03-11T03:42:07.344Z,99781.74
2019-03-11T03:43:13.953Z,99774.74
2019-03-11T03:44:23.106Z,99785.19
2019-03-11T03:45:39.678Z,99786.49
2019-03-11T03:46:46.885Z,99789.48
2019-03-11T03:47:53.315Z,99784.72
2019-03-11T03:48:59.897Z,99783.42
2019-03-11T03:50:10.384Z,99794.74
2019-03-11T03:51:17.094Z,99796.89
2019-03-11T03:52:24.232Z,99791.66
2019-03-11T03:53:30.845Z,99800.80
2019-03-11T03:54:36.964Z,99805.59
2019-03-11T03:55:44.085Z,99801.22
2019-03-11T03:56:53.721Z,99803.41
2019-03-11T03:58:01.799Z,99806.90
2019-03-11T03:59:08.812Z,99812.13
2019-03-11T04:00:15.243Z,99814.73
2019-03-11T04:01:22.666Z,99805.14
2019-03-11T04:02:29.425Z,99811.25
2019-03-11T04:03:36.194Z,99819.17
2019-03-11T04:04:43.013Z,99811.84
2019-03-11T04:05:50.482Z,99817.13
2019-03-11T04:06:57.142Z,99809.77
2019-03-11T04:08:03.664Z,99813.30
2019-03-11T04:09:10.677Z,99818.52
2019-03-11T04:10:19.265Z,99820.71
2019-03-11T04:11:25.444Z,99817.64
2019-03-11T04:12:32.066Z,99824.22
2019-03-11T04:13:38.560Z,99824.63
2019-03-11T04:14:45.060Z,99822.02
2019-03-11T04:15:52.599Z,99823.28
2019-03-11T04:17:00.425Z,99821.52
2019-03-11T04:18:11.158Z,99832.42
2019-03-11T04:19:17.666Z,99819.36
2019-03-11T04:20:29.776Z,99826.40
2019-03-11T04:21:36.275Z,99830.27
2019-03-11T04:22:42.684Z,99832.46
2019-03-11T04:23:49.654Z,99833.30
2019-03-11T04:24:56.615Z,99838.95
2019-03-11T04:26:02.706Z,99838.48
2019-03-11T04:27:11.419Z,99847.62
2019-03-11T04:28:19.084Z,99853.30
2019-03-11T04:29:25.546Z,99843.70
2019-03-11T04:30:33.828Z,99852.41
2019-03-11T04:31:40.746Z,99853.20
2019-03-11T04:32:47.625Z,99851.48
2019-03-11T04:33:53.747Z,99860.14
2019-03-11T04:35:01.962Z,99864.86
2019-03-11T04:36:09.005Z,99861.81
2019-03-11T04:37:15.349Z,99861.36
2019-03-11T04:38:23.515Z,99864.37
2019-03-11T04:39:29.931Z,99864.33
2019-03-11T04:40:37.315Z,99868.67
2019-03-11T04:41:43.945Z,99877.33
2019-03-11T04:42:50.765Z,99879.47
2019-03-11T04:43:57.945Z,99877.80
2019-03-11T04:45:05.405Z,99882.19
2019-03-11T04:46:12.032Z,99881.30
2019-03-11T04:47:18.516Z,99884.73
2019-03-11T04:48:24.782Z,99892.11
2019-03-11T04:49:32.185Z,99895.97
2019-03-11T04:50:38.985Z,99897.28
2019-03-11T04:51:46.083Z,99893.35
2019-03-11T04:52:52.727Z,99897.17
2019-03-11T04:53:59.844Z,99896.23
2019-03-11T04:55:11.395Z,99906.23
2019-03-11T04:56:18.745Z,99902.33
2019-03-11T04:57:25.065Z,99905.35
2019-03-11T04:58:31.986Z,99906.66
2019-03-11T04:59:38.657Z,99909.27
2019-03-11T05:00:45.798Z,99907.97
2019-03-11T05:01:53.015Z,99906.67
2019-03-11T05:03:01.488Z,99911.94
2019-03-11T05:04:07.796Z,99910.16
2019-03-11T05:05:16.209Z,99914.97
2019-03-11T05:06:22.786Z,99917.99
2019-03-11T05:07:31.448Z,99920.60
2019-03-11T05:08:38.876Z,99919.72
2019-03-11T05:09:46.547Z,99924.50
2019-03-11T05:10:54.365Z,99922.69
2019-03-11T05:12:21.666Z,99924.83
2019-03-11T05:13:29.306Z,99917.87
2019-03-11T05:14:36.126Z,99922.69
2019-03-11T05:15:42.986Z,99926.60
2019-03-11T05:16:50.156Z,99917.94
2019-03-11T05:17:56.545Z,99916.67
2019-03-11T05:19:03.718Z,99922.73
2019-03-11T05:20:15.524Z,99924.94
2019-03-11T05:21:22.236Z,99924.94
2019-03-11T05:22:29.388Z,99924.94
2019-03-11T05:23:35.754Z,99925.81
2019-03-11T05:24:42.595Z,99925.77
2019-03-11T05:25:49.575Z,99928.73
2019-03-11T05:26:56.676Z,99930.94
2019-03-11T05:28:04.159Z,99934.79
2019-03-11T05:29:11.104Z,99928.27
2019-03-11T05:30:21.242Z,99936.52
2019-03-11T05:31:28.337Z,99939.54
2019-03-11T05:32:35.158Z,99937.81
2019-03-11T05:33:41.817Z,99937.81
2019-03-11T05:34:49.507Z,99937.40
2019-03-11T05:35:56.677Z,99946.13
2019-03-11T05:37:03.517Z,99949.20
2019-03-11T05:38:10.543Z,99944.87
2019-03-11T05:39:17.173Z,99952.75
2019-03-11T05:40:23.597Z,99952.34
2019-03-11T05:41:30.988Z,99951.03
2019-03-11T05:42:38.107Z,99949.78
2019-03-11T05:43:44.757Z,99957.14
2019-03-11T05:44:51.330Z,99955.00
2019-03-11T05:45:58.186Z,99958.08
2019-03-11T05:47:04.817Z,99954.22
2019-03-11T05:48:11.897Z,99956.88
2019-03-11T05:49:18.797Z,99962.11
2019-03-11T05:50:26.607Z,99966.54
2019-03-11T05:51:33.036Z,99960.08
2019-03-11T05:52:40.137Z,99970.20
2019-03-11T05:53:46.777Z,99971.99
2019-03-11T05:54:53.307Z,99968.59
2019-03-11T05:56:00.619Z,99975.12
2019-03-11T05:57:07.728Z,99969.95
2019-03-11T05:58:14.909Z,99978.78
2019-03-11T05:59:23.135Z,99982.23
2019-03-11T06:00:31.235Z,99979.24
2019-03-11T06:01:38.246Z,99979.67
2019-03-11T06:02:46.109Z,99982.27
2019-03-11T06:03:52.978Z,99979.72
2019-03-11T06:04:59.590Z,99983.70
2019-03-11T06:06:07.068Z,99985.00
2019-03-11T06:07:13.261Z,99982.91
2019-03-11T06:08:24.477Z,99985.11
2019-03-11T06:09:31.085Z,99988.24
2019-03-11T06:10:37.967Z,99984.38
2019-03-11T06:11:44.645Z,99983.17
2019-03-11T06:12:51.148Z,99994.98
2019-03-11T06:13:57.728Z,99984.58
2019-03-11T06:15:07.429Z,99988.50
2019-03-11T06:16:14.271Z,99988.96
2019-03-11T06:17:20.588Z,99991.63
2019-03-11T06:18:44.174Z,99990.37
2019-03-11T06:19:51.068Z,99996.02
2019-03-11T06:20:59.937Z,99996.02
2019-03-11T06:22:11.028Z,99992.62
2019-03-11T06:23:19.708Z,99988.33
2019-03-11T06:24:26.929Z,99994.45
2019-03-11T06:25:33.958Z,99997.11
2019-03-11T06:26:41.127Z,100000.66
2019-03-11T06:27:48.913Z,99999.03
2019-03-11T06:28:55.523Z,99996.90
2019-03-11T06:30:01.938Z,100007.39
2019-03-11T06:31:09.568Z,100006.59
2019-03-11T06:32:16.352Z,100005.30
2019-03-11T06:33:22.899Z,100003.63
2019-03-11T06:34:30.168Z,100002.78
2019-03-11T06:35:37.248Z,100005.11
2019-03-11T06:36:44.568Z,100007.83
2019-03-11T06:37:51.175Z,100008.34
2019-03-11T06:39:05.313Z,100009.33
2019-03-11T06:40:14.884Z,100007.27
2019-03-11T06:41:21.868Z,100006.09
2019-03-11T06:42:28.885Z,100004.41
2019-03-11T06:43:35.490Z,100012.27
2019-03-11T06:44:42.620Z,100014.59
2019-03-11T06:45:49.006Z,100009.87
2019-03-11T06:46:55.769Z,100010.38
2019-03-11T06:48:02.288Z,100010.55
2019-03-11T06:49:09.099Z,100014.98
2019-03-11T06:50:16.708Z,100017.69
2019-03-11T06:51:23.678Z,100012.20
2019-03-11T06:52:30.329Z,100014.35
2019-03-11T06:53:37.049Z,100020.43
2019-03-11T06:54:45.548Z,100016.46
2019-03-11T06:55:52.127Z,100017.39
2019-03-11T06:56:58.629Z,100018.31
2019-03-11T06:58:05.590Z,100018.98
2019-03-11T06:59:13.650Z,100021.76
2019-03-11T07:00:21.929Z,100015.80
2019-03-11T07:01:29.990Z,100010.20
2019-03-11T07:02:38.040Z,100006.66
2019-03-11T07:03:46.039Z,100014.88
2019-03-11T07:04:53.889Z,100013.91
2019-03-11T07:06:03.089Z,100011.25
2019-03-11T07:07:09.758Z,100016.91
2019-03-11T07:08:16.536Z,100014.29
2019-03-11T07:09:23.298Z,100012.94
2019-03-11T07:10:30.749Z,100015.52
2019-03-11T07:11:37.549Z,100023.34
2019-03-11T07:12:44.109Z,100022.45
2019-03-11T07:13:50.639Z,100012.41
2019-03-11T07:14:57.252Z,100021.14
2019-03-11T07:16:04.047Z,100019.83
2019-03-11T07:17:10.589Z,100017.72
2019-03-11T07:18:17.227Z,100019.98
2019-03-11T07:19:24.109Z,100020.49
2019-03-11T07:20:30.821Z,100018.30
2019-03-11T07:21:38.209Z,100017.48
2019-03-11T07:22:45.799Z,100024.11
2019-03-11T07:23:52.475Z,100025.50
2019-03-11T07:24:59.857Z,100032.97
2019-03-11T07:26:06.991Z,100026.88
2019-03-11T07:27:13.970Z,100019.53
2019-03-11T07:28:20.628Z,100021.76
2019-03-11T07:29:27.225Z,100024.95
2019-03-11T07:30:33.977Z,100020.98
2019-03-11T07:31:40.968Z,100027.07
2019-03-11T07:32:48.057Z,100029.73
2019-03-11T07:33:54.750Z,100027.61
2019-03-11T07:35:08.230Z,100030.37
2019-03-11T07:36:10.180Z,100036.64
2019-03-11T07:37:16.912Z,100034.12
2019-03-11T07:38:24.054Z,100037.63
2019-03-11T07:39:32.644Z,100037.27
2019-03-11T07:40:38.790Z,100041.63
2019-03-11T07:41:45.642Z,100034.61
2019-03-11T07:42:52.178Z,100037.27
2019-03-11T07:43:59.032Z,100039.39
2019-03-11T07:45:08.008Z,100039.33
2019-03-11T07:46:17.430Z,100042.02
2019-03-11T07:47:24.885Z,100041.66
2019-03-11T07:48:32.860Z,100044.28
2019-03-11T07:49:38.970Z,100035.89
2019-03-11T07:50:45.579Z,100048.99
2019-03-11T07:51:52.161Z,100036.70
2019-03-11T07:52:59.360Z,100040.50
2019-03-11T07:54:05.780Z,100042.62
2019-03-11T07:55:13.829Z,100043.01
2019-03-11T07:56:21.198Z,100040.39
2019-03-11T07:57:28.202Z,100044.28
2019-03-11T07:58:35.755Z,100036.34
2019-03-11T07:59:42.820Z,100038.86
2019-03-11T08:00:53.862Z,100041.98
2019-03-11T08:01:58.422Z,100050.37
2019-03-11T08:03:07.069Z,100045.20
2019-03-11T08:04:13.430Z,100050.87
2019-03-11T08:05:20.346Z,100047.79
2019-03-11T08:06:26.591Z,100049.03
2019-03-11T08:07:33.405Z,100033.70
2019-03-11T08:08:39.431Z,100057.20
2019-03-11T08:09:46.193Z,100055.04
2019-03-11T08:10:52.801Z,100043.71
2019-03-11T08:12:00.196Z,100049.77
2019-03-11T08:13:08.053Z,100054.97
2019-03-11T08:14:15.824Z,100053.66
2019-03-11T08:15:22.671Z,100047.22
2019-03-11T08:16:29.369Z,100051.72
2019-03-11T08:17:35.791Z,100049.56
2019-03-11T08:18:42.370Z,100054.91
2019-03-11T08:19:49.271Z,100054.95
2019-03-11T08:20:57.697Z,100059.30
2019-03-11T08:22:03.817Z,100054.91
2019-03-11T08:23:10.365Z,100054.02
2019-03-11T08:24:17.333Z,100054.88
2019-03-11T08:25:23.803Z,100054.88
2019-03-11T08:26:30.474Z,100053.17
2019-03-11T08:27:37.242Z,100051.02
2019-03-11T08:28:43.471Z,100053.67
2019-03-11T08:29:51.971Z,100053.70
2019-03-11T08:30:58.239Z,100052.00
2019-03-11T08:32:05.002Z,100048.14
2019-03-11T08:33:13.031Z,100047.39
2019-03-11T08:34:20.312Z,100047.06
2019-03-11T08:35:26.461Z,100054.08
2019-03-11T08:36:32.381Z,100050.64
2019-03-11T08:37:39.201Z,100048.08
2019-03-11T08:38:46.271Z,100050.34
2019-03-11T08:39:52.981Z,100045.13
2019-03-11T08:40:59.322Z,100047.35
2019-03-11T08:42:05.477Z,100044.73
2019-03-11T08:43:12.053Z,100042.50
2019-03-11T08:44:20.223Z,100041.68
2019-03-11T08:45:45.052Z,100047.75
2019-03-11T08:46:51.592Z,100049.15
2019-03-11T08:47:57.651Z,100042.62
2019-03-11T08:49:04.862Z,100045.30
2019-03-11T08:50:19.853Z,100041.06
2019-03-11T08:51:25.721Z,100046.84
2019-03-11T08:52:32.062Z,100046.07
2019-03-11T08:53:39.290Z,100043.98
2019-03-11T08:54:45.419Z,100044.89
2019-03-11T08:55:52.925Z,100043.73
2019-03-11T08:56:58.825Z,100044.21
2019-03-11T08:58:05.303Z,100047.27
2019-03-11T08:59:11.591Z,100049.03
2019-03-11T09:00:24.721Z,100050.44
2019-03-11T09:01:30.935Z,100053.12
2019-03-11T09:02:37.664Z,100050.84
2019-03-11T09:03:43.922Z,100049.41
2019-03-11T09:04:49.984Z,100046.25
2019-03-11T09:05:56.134Z,100057.08
2019-03-11T09:07:02.764Z,100050.55
2019-03-11T09:08:09.633Z,100054.89
2019-03-11T09:09:15.782Z,100046.50
2019-03-11T09:10:22.513Z,100045.59
2019-03-11T09:11:29.263Z,100049.44
2019-03-11T09:12:35.232Z,100049.38
2019-03-11T09:13:43.123Z,100048.10
2019-03-11T09:14:51.034Z,100050.75
2019-03-11T09:15:57.427Z,100046.48
2019-03-11T09:17:04.413Z,100049.18
2019-03-11T09:18:10.595Z,100051.43
2019-03-11T09:19:17.279Z,100053.17
2019-03-11T09:20:24.204Z,100045.80
2019-03-11T09:21:30.259Z,100060.32
2019-03-11T09:22:38.365Z,100054.58
2019-03-11T09:23:45.441Z,100049.41
2019-03-11T09:24:51.772Z,100046.02
2019-03-11T09:25:58.813Z,100049.56
2019-03-11T09:27:05.664Z,100056.53
2019-03-11T09:28:13.148Z,100063.57
2019-03-11T09:29:20.820Z,100058.41
2019-03-11T09:30:27.063Z,100065.11
2019-03-11T09:31:33.405Z,100056.52
2019-03-11T09:32:40.365Z,100049.63
2019-03-11T09:33:46.335Z,100054.00
2019-03-11T09:34:53.617Z,100055.81
2019-03-11T09:36:00.627Z,100061.07
2019-03-11T09:37:06.374Z,100060.09
2019-03-11T09:38:12.292Z,100060.86
2019-03-11T09:39:18.651Z,100062.12
2019-03-11T09:40:24.385Z,100061.70
2019-03-11T09:41:31.199Z,100064.71
2019-03-11T09:42:38.474Z,100065.07
2019-03-11T09:43:45.141Z,100065.50
2019-03-11T09:44:51.533Z,100060.30
2019-03-11T09:45:57.579Z,100062.55
2019-03-11T09:47:04.513Z,100059.58
2019-03-11T09:48:12.271Z,100053.97
2019-03-11T09:49:19.049Z,100064.97
2019-03-11T09:50:24.931Z,100067.63
2019-03-11T09:51:30.917Z,100061.58
2019-03-11T09:52:36.982Z,100070.47
2019-03-11T09:53:43.043Z,100059.59
2019-03-11T09:54:49.062Z,100067.52
2019-03-11T09:55:55.799Z,100056.59
2019-03-11T09:57:03.194Z,100057.44
2019-03-11T09:58:09.190Z,100070.55
2019-03-11T09:59:15.160Z,100057.42
2019-03-11T10:00:35.717Z,100058.65
2019-03-11T10:01:41.961Z,100056.98
2019-03-11T10:02:52.945Z,100058.82
2019-03-11T10:03:56.110Z,100057.59
2019-03-11T10:05:02.559Z,100053.20
2019-03-11T10:06:09.386Z,100055.42
2019-03-11T10:07:16.196Z,100054.56
2019-03-11T10:08:22.139Z,100059.44
2019-03-11T10:09:29.246Z,100055.55
2019-03-11T10:10:35.595Z,100051.16
2019-03-11T10:11:44.960Z,100062.62
2019-03-11T10:12:50.700Z,100055.61
2019-03-11T10:13:57.251Z,100066.99
2019-03-11T10:15:03.173Z,100067.45
2019-03-11T10:16:09.269Z,100060.42
2019-03-11T10:17:15.051Z,100065.66
2019-03-11T10:18:20.984Z,100073.55
2019-03-11T10:19:26.811Z,100075.28
2019-03-11T10:20:33.131Z,100073.05
2019-03-11T10:21:40.265Z,100068.17
2019-03-11T10:22:46.590Z,100062.88
2019-03-11T10:23:53.072Z,100057.56
2019-03-11T10:25:00.395Z,100067.56
2019-03-11T10:26:06.491Z,100067.13
2019-03-11T10:27:12.372Z,100063.63
2019-03-11T10:28:21.984Z,100064.98
2019-03-11T10:29:29.145Z,100074.22
2019-03-11T10:30:37.446Z,100071.63
2019-03-11T10:31:45.828Z,100075.13
2019-03-11T10:32:51.674Z,100066.76
2019-03-11T10:33:57.472Z,100064.09
2019-03-11T10:35:03.930Z,100057.94
2019-03-11T10:36:10.133Z,100067.59
2019-03-11T10:37:19.055Z,100062.32
2019-03-11T10:38:29.364Z,100060.97
2019-03-11T10:39:36.516Z,100059.22
2019-03-11T10:40:49.054Z,100065.41
2019-03-11T10:41:55.018Z,100061.05
2019-03-11T10:43:01.176Z,100063.69
2019-03-11T10:44:07.325Z,100066.72
2019-03-11T10:45:16.132Z,100059.20
2019-03-11T10:46:22.578Z,100061.77
2019-03-11T10:47:28.883Z,100060.87
2019-03-11T10:48:37.500Z,100060.91
2019-03-11T10:49:44.050Z,100061.80
2019-03-11T10:50:50.387Z,100051.27
2019-03-11T10:51:56.610Z,100057.45
2019-03-11T10:53:02.850Z,100059.17
2019-03-11T10:54:08.890Z,100056.10
2019-03-11T10:55:22.329Z,100057.84
2019-03-11T10:56:28.450Z,100066.58
2019-03-11T10:57:34.465Z,100053.05
2019-03-11T10:58:40.426Z,100054.00
2019-03-11T10:59:46.308Z,100051.80
2019-03-11T11:00:53.856Z,100049.20
2019-03-11T11:01:59.864Z,100053.17
2019-03-11T11:03:06.032Z,100050.99
2019-03-11T11:04:12.250Z,100055.44
2019-03-11T11:05:19.291Z,100048.45
2019-03-11T11:06:26.818Z,100051.92
2019-03-11T11:07:33.052Z,100058.45
2019-03-11T11:08:39.755Z,100049.72
2019-03-11T11:09:49.258Z,100060.70
2019-03-11T11:10:56.812Z,100058.95
2019-03-11T11:12:03.697Z,100063.72
2019-03-11T11:13:10.162Z,100057.55
2019-03-11T11:14:16.305Z,100060.64
2019-03-11T11:15:27.214Z,100054.56
2019-03-11T11:16:33.443Z,100059.45
2019-03-11T11:17:40.525Z,100054.19
2019-03-11T11:18:46.777Z,100054.66
2019-03-11T11:20:03.155Z,100054.19
2019-03-11T11:21:06.787Z,100060.36
2019-03-11T11:22:14.157Z,100055.97
2019-03-11T11:23:20.805Z,100044.52
2019-03-11T11:24:31.210Z,100045.84
2019-03-11T11:25:39.009Z,100047.61
2019-03-11T11:26:45.508Z,100048.04
2019-03-11T11:27:52.656Z,100045.01
2019-03-11T11:28:58.672Z,100050.26
2019-03-11T11:30:08.226Z,100047.20
2019-03-11T11:31:14.771Z,100052.05
2019-03-11T11:32:21.145Z,100052.95
2019-03-11T11:33:28.234Z,100050.74
2019-03-11T11:34:35.921Z,100049.44
2019-03-11T11:35:42.476Z,100056.05
2019-03-11T11:36:50.491Z,100054.27
2019-03-11T11:37:57.587Z,100055.56
2019-03-11T11:39:05.216Z,100055.56
2019-03-11T11:40:22.316Z,100059.06
2019-03-11T11:41:28.713Z,100061.22
2019-03-11T11:42:35.135Z,100056.39
2019-03-11T11:43:41.197Z,100057.69
2019-03-11T11:44:47.534Z,100060.75
2019-03-11T11:45:54.021Z,100058.50
2019-03-11T11:47:04.596Z,100065.94
2019-03-11T11:48:20.368Z,100059.36
2019-03-11T11:49:38.052Z,100065.08
2019-03-11T11:52:43.287Z,100056.32
2019-03-11T11:54:00.487Z,100059.06
2019-03-11T11:55:32.172Z,100052.51
2019-03-11T11:56:49.305Z,100057.81
2019-03-11T11:58:23.710Z,100053.03
2019-03-11T11:59:53.627Z,100056.97
2019-03-11T12:01:14.471Z,100055.25
2019-03-11T12:02:22.214Z,100057.42
2019-03-11T12:03:42.537Z,100060.95
2019-03-11T12:05:38.700Z,100050.85
2019-03-11T12:06:49.012Z,100050.41
2019-03-11T12:08:00.691Z,100051.75
2019-03-11T12:09:27.651Z,100053.50
2019-03-11T12:10:41.452Z,100052.17
2019-03-11T12:12:25.628Z,100050.87
2019-03-11T12:13:35.014Z,100051.31
2019-03-11T12:17:03.483Z,100061.41
2019-03-11T12:20:47.929Z,100061.83
2019-03-11T12:22:00.088Z,100063.14
2019-03-11T12:23:08.054Z,100064.03
2019-03-11T12:24:14.058Z,100062.27
2019-03-11T12:25:20.114Z,100060.53
2019-03-11T12:26:26.057Z,100060.97
2019-03-11T12:27:31.902Z,100061.84
2019-03-11T12:28:38.243Z,100066.66
2019-03-11T12:29:46.099Z,100063.99
2019-03-11T12:30:53.130Z,100060.02
2019-03-11T12:31:59.087Z,100059.57
2019-03-11T12:33:05.456Z,100065.70
2019-03-11T12:34:11.593Z,100067.91
2019-03-11T12:35:17.620Z,100061.79
2019-03-11T12:36:23.966Z,100060.89
2019-03-11T12:37:31.300Z,100059.15
2019-03-11T12:38:37.469Z,100061.77
2019-03-11T12:39:43.462Z,100062.70
2019-03-11T12:40:50.024Z,100056.98
2019-03-11T12:41:56.045Z,100065.80
2019-03-11T12:43:04.791Z,100059.20
2019-03-11T12:44:11.191Z,100063.60
2019-03-11T12:45:20.444Z,100065.37
2019-03-11T12:46:26.630Z,100066.69
2019-03-11T12:47:32.503Z,100063.59
2019-03-11T12:48:39.085Z,100065.37
2019-03-11T12:51:34.681Z,100062.29
2019-03-11T12:52:37.428Z,100062.27
2019-03-11T12:53:43.329Z,100068.00
2019-03-11T12:54:50.064Z,100070.19
2019-03-11T12:55:55.971Z,100065.35
2019-03-11T12:57:01.834Z,100058.73
2019-03-11T12:58:07.736Z,100067.09
2019-03-11T12:59:13.754Z,100066.63
2019-03-11T13:00:24.829Z,100063.13
2019-03-11T13:01:30.854Z,100068.37
2019-03-11T13:02:41.087Z,100066.17
2019-03-11T13:03:47.471Z,100077.58
2019-03-11T13:04:53.731Z,100073.63
2019-03-11T13:05:59.840Z,100070.55
2019-03-11T13:07:06.019Z,100073.18
2019-03-11T13:08:11.958Z,100075.78
2019-03-11T13:09:18.741Z,100078.41
2019-03-11T13:10:34.192Z,100078.81
2019-03-11T13:11:40.255Z,100079.67